createdAt,value
2022-12-08T00:00:32.096Z,9.70
2022-12-08T00:15:34.078Z,9.00
2022-12-08T00:30:35.993Z,8.70
2022-12-08T00:45:37.934Z,9.00
2022-12-08T01:00:43.947Z,11.80
2022-12-08T01:15:45.967Z,12.73
2022-12-08T01:30:47.913Z,11.75
2022-12-08T01:45:49.849Z,11.02
2022-12-08T02:00:52.834Z,10.15
2022-12-08T02:16:33.437Z,10.45
2022-12-08T02:32:00.010Z,10.18
2022-12-08T02:47:12.146Z,9.32
2022-12-08T03:02:17.649Z,8.77
2022-12-08T03:17:22.694Z,8.90
2022-12-08T03:32:37.538Z,8.68
2022-12-08T03:47:39.739Z,10.07
2022-12-08T04:02:41.791Z,9.35
2022-12-08T04:17:43.743Z,9.20
2022-12-08T04:32:47.476Z,9.18
2022-12-08T04:47:49.635Z,11.82
2022-12-08T05:02:51.563Z,9.70
2022-12-08T05:17:53.577Z,10.63
2022-12-08T05:32:55.517Z,13.68
2022-12-08T05:47:57.453Z,12.73
2022-12-08T06:02:59.482Z,12.65
2022-12-08T06:18:01.743Z,12.43
2022-12-08T06:33:03.684Z,12.20
2022-12-08T06:48:05.757Z,12.52
2022-12-08T07:03:09.137Z,12.85
2022-12-08T07:18:11.071Z,13.82
2022-12-08T07:33:12.969Z,12.38
2022-12-08T07:48:14.879Z,11.77
2022-12-08T08:03:16.866Z,12.60
2022-12-08T08:18:18.870Z,12.93
2022-12-08T08:33:21.342Z,11.65
2022-12-08T08:48:23.247Z,12.13
2022-12-08T09:03:25.193Z,10.98
2022-12-08T09:18:27.150Z,10.45
2022-12-08T09:33:29.092Z,10.10
2022-12-08T09:48:45.589Z,11.13
2022-12-08T10:03:48.055Z,10.40
2022-12-08T10:19:01.270Z,10.27
2022-12-08T10:34:15.401Z,10.20
2022-12-08T10:49:27.465Z,11.35
2022-12-08T11:04:36.199Z,9.95
2022-12-08T11:34:56.446Z,9.40
2022-12-08T11:50:16.677Z,9.30
2022-12-08T12:06:03.258Z,10.13
2022-12-08T12:21:17.030Z,11.48
2022-12-08T12:36:19.082Z,11.00
2022-12-08T12:51:46.672Z,19.02
2022-12-08T13:06:50.586Z,12.47
2022-12-08T13:21:52.828Z,17.25
2022-12-08T13:37:15.814Z,10.68
2022-12-08T14:07:56.200Z,11.07
2022-12-08T14:23:01.977Z,12.30
2022-12-08T14:38:15.681Z,12.63
2022-12-08T14:53:18.457Z,14.10
2022-12-08T15:08:20.476Z,13.63
2022-12-08T15:23:35.573Z,15.93
2022-12-08T15:38:38.005Z,17.10
2022-12-08T15:53:40.006Z,17.40
2022-12-08T16:08:52.184Z,20.80
2022-12-08T16:24:09.063Z,20.38
2022-12-08T16:39:13.813Z,18.00
2022-12-08T16:54:15.860Z,24.20
2022-12-08T17:09:17.888Z,25.80
2022-12-08T17:24:22.264Z,19.67
2022-12-08T17:39:25.355Z,20.67
2022-12-08T17:54:28.648Z,21.40
2022-12-08T18:09:31.769Z,20.38
2022-12-08T18:24:33.700Z,23.38
2022-12-08T18:39:35.788Z,21.48
2022-12-08T18:55:07.795Z,20.42
2022-12-08T19:10:00.239Z,20.42
2022-12-08T19:25:02.273Z,19.52
2022-12-08T19:40:24.010Z,19.27
2022-12-08T19:55:26.719Z,17.55
2022-12-08T20:10:33.831Z,18.70
2022-12-08T20:25:39.374Z,21.33
2022-12-08T20:40:47.249Z,21.27
2022-12-08T20:55:49.197Z,21.50
2022-12-08T21:10:55.489Z,20.52
2022-12-08T21:25:57.649Z,19.65
2022-12-08T21:41:08.870Z,19.13
2022-12-08T21:56:11.098Z,20.27
2022-12-08T22:11:13.400Z,23.10
2022-12-08T22:26:15.863Z,19.73
2022-12-08T22:41:18.539Z,19.95
2022-12-08T22:56:20.729Z,20.80
2022-12-08T23:11:26.003Z,21.83
2022-12-08T23:26:30.048Z,22.08
2022-12-08T23:41:33.236Z,20.90
2022-12-08T23:56:35.120Z,20.52
